EZY6BW EGKK-EHAM
Flight info
| Callsign | EZY6BW |
|---|---|
| Flight time | 0h 37m |
| Altitude | 29000 |
| Route | FRANE M604 GASBA M197 REDFA |
| Aircraft | A320/M-SDE3FGHIRWY/LB1 |
Departure
| Time | 2026-05-06 15:30 |
|---|---|
| Airport | London Gatwick Airport (EGKK) |
Arrival
| Time | 2026-05-06 16:07 |
|---|---|
| Airport | Amsterdam Airport Schiphol (EHAM) |
| Time | Latitude | Longitude | Altitude | Speed | Heading |
|---|---|---|---|---|---|
| 2026-05-06 15:04 | 51.15415 | -0.18932 | 205 ft | 0 kts | 258° |
| 2026-05-06 15:20 | 51.15416 | -0.18925 | 205 ft | 2 kts | 257° |
| 2026-05-06 15:20 | 51.15419 | -0.18899 | 209 ft | 2 kts | 257° |
| 2026-05-06 15:21 | 51.15423 | -0.18874 | 209 ft | 2 kts | 255° |
| 2026-05-06 15:21 | 51.15428 | -0.18848 | 210 ft | 2 kts | 252° |
| 2026-05-06 15:21 | 51.15433 | -0.18823 | 211 ft | 2 kts | 244° |
| 2026-05-06 15:21 | 51.15442 | -0.18801 | 208 ft | 2 kts | 200° |
| 2026-05-06 15:22 | 51.15454 | -0.18798 | 215 ft | 1 kts | 167° |
| 2026-05-06 15:22 | 51.15455 | -0.18799 | 205 ft | 0 kts | 168° |
| 2026-05-06 15:24 | 51.15454 | -0.18798 | 205 ft | 1 kts | 168° |
| 2026-05-06 15:24 | 51.15403 | -0.18781 | 205 ft | 13 kts | 168° |
| 2026-05-06 15:24 | 51.15278 | -0.18739 | 205 ft | 21 kts | 168° |
| 2026-05-06 15:25 | 51.15156 | -0.18710 | 213 ft | 12 kts | 197° |
| 2026-05-06 15:25 | 51.15119 | -0.18814 | 209 ft | 10 kts | 256° |
| 2026-05-06 15:25 | 51.15101 | -0.18944 | 208 ft | 15 kts | 258° |
| 2026-05-06 15:25 | 51.15077 | -0.19132 | 208 ft | 20 kts | 258° |
| 2026-05-06 15:26 | 51.15043 | -0.19376 | 214 ft | 25 kts | 257° |
| 2026-05-06 15:26 | 51.15002 | -0.19669 | 211 ft | 27 kts | 258° |
| 2026-05-06 15:26 | 51.14968 | -0.19918 | 208 ft | 23 kts | 258° |
| 2026-05-06 15:26 | 51.14936 | -0.20162 | 208 ft | 22 kts | 258° |
| 2026-05-06 15:27 | 51.14900 | -0.20406 | 207 ft | 23 kts | 257° |
| 2026-05-06 15:27 | 51.14865 | -0.20668 | 208 ft | 25 kts | 258° |
| 2026-05-06 15:27 | 51.14827 | -0.20939 | 216 ft | 25 kts | 257° |
| 2026-05-06 15:27 | 51.14791 | -0.21162 | 211 ft | 13 kts | 245° |
| 2026-05-06 15:28 | 51.14769 | -0.21294 | 217 ft | 11 kts | 259° |
| 2026-05-06 15:28 | 51.14741 | -0.21398 | 213 ft | 10 kts | 216° |
| 2026-05-06 15:28 | 51.14683 | -0.21390 | 205 ft | 8 kts | 152° |
| 2026-05-06 15:28 | 51.14627 | -0.21337 | 207 ft | 12 kts | 161° |
| 2026-05-06 15:29 | 51.14538 | -0.21267 | 208 ft | 17 kts | 127° |
| 2026-05-06 15:29 | 51.14533 | -0.21085 | 207 ft | 17 kts | 79° |
| 2026-05-06 15:29 | 51.14581 | -0.20733 | 209 ft | 63 kts | 77° |
| 2026-05-06 15:29 | 51.14725 | -0.19702 | 208 ft | 125 kts | 77° |
| 2026-05-06 15:30 | 51.14932 | -0.18135 | 426 ft | 154 kts | 75° |
| 2026-05-06 15:30 | 51.15159 | -0.16456 | 1251 ft | 154 kts | 74° |
| 2026-05-06 15:30 | 51.15398 | -0.14739 | 1865 ft | 166 kts | 73° |
| 2026-05-06 15:30 | 51.15667 | -0.12820 | 2264 ft | 189 kts | 74° |
| 2026-05-06 15:31 | 51.15974 | -0.10649 | 2583 ft | 214 kts | 75° |
| 2026-05-06 15:31 | 51.16317 | -0.08202 | 3050 ft | 239 kts | 75° |
| 2026-05-06 15:31 | 51.16687 | -0.05512 | 3687 ft | 255 kts | 75° |
| 2026-05-06 15:32 | 51.16857 | 0.00304 | 4912 ft | 268 kts | 89° |
| 2026-05-06 15:32 | 51.16798 | 0.03286 | 5759 ft | 270 kts | 90° |
| 2026-05-06 15:32 | 51.16737 | 0.06282 | 6745 ft | 272 kts | 90° |
| 2026-05-06 15:32 | 51.16675 | 0.09322 | 7614 ft | 277 kts | 90° |
| 2026-05-06 15:33 | 51.16616 | 0.12420 | 8466 ft | 282 kts | 90° |
| 2026-05-06 15:33 | 51.16559 | 0.15575 | 9335 ft | 288 kts | 89° |
| 2026-05-06 15:33 | 51.16530 | 0.18791 | 10153 ft | 293 kts | 88° |
| 2026-05-06 15:33 | 51.16614 | 0.22091 | 10641 ft | 307 kts | 77° |
| 2026-05-06 15:34 | 51.17442 | 0.25310 | 10915 ft | 326 kts | 53° |
| 2026-05-06 15:34 | 51.19097 | 0.27825 | 11389 ft | 335 kts | 29° |
| 2026-05-06 15:34 | 51.21245 | 0.29296 | 12064 ft | 338 kts | 17° |
| 2026-05-06 15:34 | 51.23490 | 0.30503 | 12748 ft | 344 kts | 17° |
| 2026-05-06 15:35 | 51.25771 | 0.31710 | 12971 ft | 346 kts | 16° |
| 2026-05-06 15:35 | 51.28030 | 0.32908 | 13024 ft | 346 kts | 16° |
| 2026-05-06 15:35 | 51.30338 | 0.34132 | 13022 ft | 346 kts | 16° |
| 2026-05-06 15:35 | 51.32623 | 0.35346 | 13018 ft | 346 kts | 17° |
| 2026-05-06 15:36 | 51.34906 | 0.36563 | 13015 ft | 346 kts | 16° |
| 2026-05-06 15:36 | 51.37189 | 0.37779 | 13008 ft | 346 kts | 17° |
| 2026-05-06 15:36 | 51.39468 | 0.38992 | 13004 ft | 346 kts | 17° |
| 2026-05-06 15:36 | 51.41754 | 0.40211 | 12993 ft | 346 kts | 17° |
| 2026-05-06 15:37 | 51.44040 | 0.41431 | 12993 ft | 346 kts | 16° |
| 2026-05-06 15:37 | 51.46324 | 0.42649 | 12991 ft | 346 kts | 16° |
| 2026-05-06 15:37 | 51.48609 | 0.43870 | 12995 ft | 346 kts | 16° |
| 2026-05-06 15:37 | 51.50876 | 0.45085 | 13224 ft | 350 kts | 17° |
| 2026-05-06 15:38 | 51.53190 | 0.46326 | 14012 ft | 353 kts | 16° |
| 2026-05-06 15:38 | 51.55536 | 0.47587 | 14684 ft | 357 kts | 17° |
| 2026-05-06 15:38 | 51.57901 | 0.48860 | 15329 ft | 361 kts | 16° |
| 2026-05-06 15:38 | 51.60294 | 0.50150 | 15979 ft | 365 kts | 16° |
| 2026-05-06 15:39 | 51.62715 | 0.51458 | 16616 ft | 369 kts | 16° |
| 2026-05-06 15:39 | 51.65159 | 0.52778 | 17255 ft | 373 kts | 16° |
| 2026-05-06 15:39 | 51.67630 | 0.54116 | 17892 ft | 376 kts | 16° |
| 2026-05-06 15:39 | 51.70125 | 0.55470 | 18478 ft | 380 kts | 17° |
| 2026-05-06 15:40 | 51.72644 | 0.56833 | 19021 ft | 384 kts | 17° |
| 2026-05-06 15:40 | 51.75189 | 0.58213 | 19571 ft | 387 kts | 16° |
| 2026-05-06 15:40 | 51.77754 | 0.59604 | 20109 ft | 391 kts | 16° |
| 2026-05-06 15:40 | 51.80341 | 0.61009 | 20631 ft | 394 kts | 16° |
| 2026-05-06 15:41 | 51.82949 | 0.62427 | 21153 ft | 397 kts | 16° |
| 2026-05-06 15:41 | 51.85582 | 0.63856 | 21671 ft | 401 kts | 16° |
| 2026-05-06 15:41 | 51.88199 | 0.65466 | 22183 ft | 406 kts | 26° |
| 2026-05-06 15:41 | 51.90505 | 0.68131 | 22645 ft | 413 kts | 44° |
| 2026-05-06 15:42 | 51.92224 | 0.71874 | 23097 ft | 418 kts | 63° |
| 2026-05-06 15:42 | 51.93151 | 0.76355 | 23554 ft | 422 kts | 79° |
| 2026-05-06 15:42 | 51.93689 | 0.81040 | 23963 ft | 425 kts | 79° |
| 2026-05-06 15:42 | 51.94219 | 0.85778 | 24377 ft | 427 kts | 79° |
| 2026-05-06 15:43 | 51.94746 | 0.90531 | 24793 ft | 430 kts | 79° |
| 2026-05-06 15:43 | 51.95277 | 0.95308 | 25201 ft | 432 kts | 79° |
| 2026-05-06 15:43 | 51.95808 | 1.00111 | 25601 ft | 434 kts | 79° |
| 2026-05-06 15:43 | 51.96341 | 1.04897 | 25990 ft | 436 kts | 79° |
| 2026-05-06 15:44 | 51.96705 | 1.08142 | 26254 ft | 438 kts | 79° |
| 2026-05-06 15:44 | 51.97434 | 1.14661 | 26771 ft | 440 kts | 79° |
| 2026-05-06 15:44 | 51.97975 | 1.19564 | 27157 ft | 443 kts | 80° |
| 2026-05-06 15:44 | 51.98516 | 1.24490 | 27540 ft | 445 kts | 80° |
| 2026-05-06 15:45 | 51.98876 | 1.27764 | 27789 ft | 446 kts | 80° |
| 2026-05-06 15:45 | 51.99422 | 1.32741 | 28157 ft | 449 kts | 80° |
| 2026-05-06 15:45 | 51.99967 | 1.37730 | 28523 ft | 451 kts | 80° |
| 2026-05-06 15:45 | 52.00519 | 1.42821 | 28872 ft | 453 kts | 80° |
| 2026-05-06 15:46 | 52.01588 | 1.52769 | 28974 ft | 439 kts | 80° |
| 2026-05-06 15:46 | 52.02620 | 1.62492 | 28971 ft | 436 kts | 81° |
| 2026-05-06 15:47 | 52.03644 | 1.72181 | 28969 ft | 435 kts | 81° |
| 2026-05-06 15:47 | 52.04650 | 1.81711 | 28969 ft | 436 kts | 81° |
| 2026-05-06 15:48 | 52.05664 | 1.91426 | 28968 ft | 436 kts | 81° |
| 2026-05-06 15:48 | 52.06672 | 2.01199 | 28968 ft | 444 kts | 81° |
| 2026-05-06 15:49 | 52.07173 | 2.06099 | 28812 ft | 434 kts | 81° |
| 2026-05-06 15:49 | 52.07658 | 2.10860 | 28666 ft | 420 kts | 81° |
| 2026-05-06 15:49 | 52.08127 | 2.15469 | 28519 ft | 406 kts | 81° |
| 2026-05-06 15:49 | 52.08579 | 2.19931 | 28381 ft | 394 kts | 82° |
| 2026-05-06 15:50 | 52.09014 | 2.24228 | 28214 ft | 376 kts | 82° |
| 2026-05-06 15:50 | 52.09643 | 2.30479 | 27997 ft | 360 kts | 82° |
| 2026-05-06 15:50 | 52.10428 | 2.38331 | 27463 ft | 347 kts | 82° |
| 2026-05-06 15:50 | 52.11239 | 2.45993 | 26708 ft | 342 kts | 76° |
| 2026-05-06 15:51 | 52.13030 | 2.53091 | 25959 ft | 338 kts | 58° |
| 2026-05-06 15:51 | 52.15423 | 2.59625 | 25239 ft | 334 kts | 59° |
| 2026-05-06 15:51 | 52.17760 | 2.66116 | 24482 ft | 332 kts | 59° |
| 2026-05-06 15:51 | 52.20119 | 2.72689 | 23304 ft | 338 kts | 59° |
| 2026-05-06 15:52 | 52.24030 | 2.83563 | 21157 ft | 334 kts | 59° |
| 2026-05-06 15:52 | 52.28665 | 2.96515 | 18858 ft | 339 kts | 59° |
| 2026-05-06 15:52 | 52.34341 | 3.12434 | 16728 ft | 450 kts | 59° |
| 2026-05-06 15:52 | 52.37091 | 3.20207 | 13896 ft | 428 kts | 58° |
| 2026-05-06 15:53 | 52.38558 | 3.24370 | 13477 ft | 419 kts | 59° |
| 2026-05-06 15:53 | 52.39994 | 3.28442 | 12832 ft | 404 kts | 58° |
| 2026-05-06 15:53 | 52.41857 | 3.33742 | 12114 ft | 371 kts | 59° |
| 2026-05-06 15:53 | 52.44797 | 3.42549 | 10802 ft | 359 kts | 68° |
| 2026-05-06 15:54 | 52.45458 | 3.46475 | 10255 ft | 356 kts | 76° |
| 2026-05-06 15:54 | 52.46010 | 3.50441 | 9982 ft | 349 kts | 76° |
| 2026-05-06 15:54 | 52.46552 | 3.54298 | 9907 ft | 345 kts | 76° |
| 2026-05-06 15:54 | 52.47081 | 3.58020 | 9747 ft | 323 kts | 76° |
| 2026-05-06 15:55 | 52.47578 | 3.61511 | 9252 ft | 309 kts | 76° |
| 2026-05-06 15:55 | 52.48062 | 3.64901 | 8589 ft | 301 kts | 76° |
| 2026-05-06 15:55 | 52.48536 | 3.68227 | 7984 ft | 296 kts | 76° |
| 2026-05-06 15:55 | 52.48997 | 3.71475 | 7307 ft | 290 kts | 76° |
| 2026-05-06 15:56 | 52.49451 | 3.74675 | 6994 ft | 287 kts | 76° |
| 2026-05-06 15:56 | 52.49999 | 3.78539 | 6929 ft | 286 kts | 76° |
| 2026-05-06 15:56 | 52.50894 | 3.84906 | 6941 ft | 286 kts | 76° |
| 2026-05-06 15:56 | 52.51943 | 3.92864 | 6933 ft | 286 kts | 84° |
| 2026-05-06 15:57 | 52.51813 | 3.96126 | 6935 ft | 289 kts | 101° |
| 2026-05-06 15:57 | 52.51111 | 3.99223 | 6935 ft | 292 kts | 117° |
| 2026-05-06 15:57 | 52.49918 | 4.01933 | 6933 ft | 295 kts | 128° |
| 2026-05-06 15:57 | 52.45813 | 4.09947 | 5714 ft | 287 kts | 127° |
| 2026-05-06 15:58 | 52.42315 | 4.16806 | 4816 ft | 276 kts | 127° |
| 2026-05-06 15:58 | 52.41082 | 4.19230 | 4920 ft | 271 kts | 127° |
| 2026-05-06 15:58 | 52.39897 | 4.21558 | 4670 ft | 262 kts | 126° |
| 2026-05-06 15:58 | 52.38737 | 4.23845 | 4285 ft | 260 kts | 126° |
| 2026-05-06 15:59 | 52.37587 | 4.26107 | 3953 ft | 257 kts | 126° |
| 2026-05-06 15:59 | 52.36450 | 4.28332 | 3913 ft | 248 kts | 126° |
| 2026-05-06 15:59 | 52.35370 | 4.30436 | 3794 ft | 236 kts | 126° |
| 2026-05-06 15:59 | 52.34335 | 4.32446 | 3622 ft | 227 kts | 126° |
| 2026-05-06 16:00 | 52.33326 | 4.34405 | 3450 ft | 225 kts | 126° |
| 2026-05-06 16:00 | 52.32324 | 4.36350 | 3359 ft | 219 kts | 126° |
| 2026-05-06 16:00 | 52.31354 | 4.38232 | 3147 ft | 214 kts | 125° |
| 2026-05-06 16:00 | 52.30414 | 4.40060 | 3019 ft | 206 kts | 125° |
| 2026-05-06 16:01 | 52.29511 | 4.41817 | 3011 ft | 197 kts | 124° |
| 2026-05-06 16:01 | 52.28644 | 4.43498 | 2891 ft | 190 kts | 124° |
| 2026-05-06 16:01 | 52.27812 | 4.45107 | 2724 ft | 182 kts | 124° |
| 2026-05-06 16:01 | 52.27021 | 4.46636 | 2585 ft | 167 kts | 124° |
| 2026-05-06 16:02 | 52.26292 | 4.48041 | 2207 ft | 160 kts | 123° |
| 2026-05-06 16:02 | 52.25592 | 4.49396 | 2094 ft | 154 kts | 122° |
| 2026-05-06 16:02 | 52.24921 | 4.50691 | 2087 ft | 145 kts | 122° |
| 2026-05-06 16:02 | 52.24278 | 4.51936 | 2107 ft | 142 kts | 122° |
| 2026-05-06 16:03 | 52.23646 | 4.53161 | 2109 ft | 140 kts | 123° |
| 2026-05-06 16:03 | 52.23048 | 4.54399 | 2110 ft | 137 kts | 113° |
| 2026-05-06 16:03 | 52.22709 | 4.56795 | 2092 ft | 127 kts | 79° |
| 2026-05-06 16:03 | 52.23034 | 4.58227 | 2091 ft | 124 kts | 53° |
| 2026-05-06 16:04 | 52.23474 | 4.59454 | 2012 ft | 125 kts | 56° |
| 2026-05-06 16:04 | 52.23910 | 4.60684 | 1886 ft | 125 kts | 58° |
| 2026-05-06 16:04 | 52.24365 | 4.61915 | 1737 ft | 124 kts | 56° |
| 2026-05-06 16:04 | 52.24814 | 4.63087 | 1577 ft | 124 kts | 55° |
| 2026-05-06 16:05 | 52.25269 | 4.64272 | 1402 ft | 123 kts | 55° |
| 2026-05-06 16:05 | 52.25727 | 4.65459 | 1239 ft | 124 kts | 55° |
| 2026-05-06 16:05 | 52.26184 | 4.66645 | 1070 ft | 123 kts | 54° |
| 2026-05-06 16:05 | 52.26639 | 4.67826 | 881 ft | 123 kts | 56° |
| 2026-05-06 16:06 | 52.27091 | 4.69000 | 710 ft | 121 kts | 56° |
| 2026-05-06 16:06 | 52.27544 | 4.70175 | 549 ft | 124 kts | 56° |
| 2026-05-06 16:06 | 52.28013 | 4.71366 | 338 ft | 124 kts | 56° |
| 2026-05-06 16:06 | 52.28469 | 4.72586 | 179 ft | 125 kts | 57° |
| 2026-05-06 16:07 | 52.28932 | 4.73768 | 30 ft | 121 kts | 58° |
| 2026-05-06 16:07 | 52.29326 | 4.74796 | -1 ft | 85 kts | 59° |
| 2026-05-06 16:07 | 52.29567 | 4.75424 | -3 ft | 55 kts | 58° |
| 2026-05-06 16:07 | 52.29750 | 4.75902 | -4 ft | 45 kts | 59° |
| 2026-05-06 16:08 | 52.29904 | 4.76305 | -6 ft | 39 kts | 57° |
| 2026-05-06 16:08 | 52.30063 | 4.76567 | -3 ft | 23 kts | 28° |
| 2026-05-06 16:08 | 52.30190 | 4.76681 | -2 ft | 20 kts | 24° |
| 2026-05-06 16:08 | 52.30297 | 4.76743 | -5 ft | 15 kts | 347° |
| 2026-05-06 16:09 | 52.30392 | 4.76765 | -4 ft | 15 kts | 55° |
| 2026-05-06 16:09 | 52.30449 | 4.76920 | -7 ft | 17 kts | 59° |
| 2026-05-06 16:09 | 52.30512 | 4.77087 | -6 ft | 17 kts | 57° |
| 2026-05-06 16:09 | 52.30582 | 4.77246 | -6 ft | 17 kts | 38° |
| 2026-05-06 16:10 | 52.30649 | 4.77194 | -4 ft | 7 kts | 276° |
| 2026-05-06 16:10 | 52.30670 | 4.77153 | -4 ft | 3 kts | 358° |
| 2026-05-06 16:10 | 52.30682 | 4.77153 | -3 ft | 0 kts | 1° |
| 2026-05-06 16:10 | 52.30700 | 4.77154 | -3 ft | 3 kts | 2° |
| 2026-05-06 16:11 | 52.30716 | 4.77155 | -3 ft | 0 kts | 2° |